Time;durP1;ratioP1;P1;durP2;ratioP2;P2;SDS_P1;SDS_P2;PMS_P1;PMS_P2;Temp;Humidity;BMP_temperature;BMP_pressure;BME280_temperature;BME280_humidity;BME280_pressure;Samples;Min_cycle;Max_cycle;Signal;HPM_P1;HPM_P2
2022/12/04 00:00:30;;;;;;;35.72;20.02;;;;;;;;;;4976225;28;20050;-64
2022/12/04 00:02:56;;;;;;;36.30;20.35;;;;;;;;;;4991478;28;20108;-64
2022/12/04 00:05:23;;;;;;;32.17;18.88;;;;;;;;;;4974723;28;20082;-64
2022/12/04 00:07:49;;;;;;;31.25;18.00;;;;;;;;;;4992503;28;20046;-64
2022/12/04 00:10:16;;;;;;;33.55;18.90;;;;;;;;;;4993039;28;20048;-64
2022/12/04 00:12:42;;;;;;;27.58;17.05;;;;;;;;;;4992856;28;20042;-63
2022/12/04 00:15:09;;;;;;;31.25;17.48;;;;;;;;;;4992153;28;20046;-64
2022/12/04 00:17:52;;;;;;;28.83;17.30;;;;;;;;;;4992489;28;20399;-64
2022/12/04 00:20:18;;;;;;;31.73;18.42;;;;;;;;;;4975232;28;20042;-63
2022/12/04 00:22:45;;;;;;;32.00;17.67;;;;;;;;;;4992682;28;20053;-64
2022/12/04 00:25:11;;;;;;;27.10;17.15;;;;;;;;;;4991921;28;20097;-64
2022/12/04 00:27:38;;;;;;;30.65;18.83;;;;;;;;;;4992232;28;20043;-64
2022/12/04 00:30:04;;;;;;;31.40;17.75;;;;;;;;;;4974850;28;20049;-63
2022/12/04 00:32:31;;;;;;;29.15;16.63;;;;;;;;;;4992298;28;20081;-63
2022/12/04 00:34:57;;;;;;;26.85;16.27;;;;;;;;;;4974776;28;20706;-64
2022/12/04 00:37:24;;;;;;;31.63;18.33;;;;;;;;;;4991923;28;20513;-63
2022/12/04 00:39:50;;;;;;;27.58;16.92;;;;;;;;;;4975099;28;20038;-64
2022/12/04 00:42:16;;;;;;;26.30;16.42;;;;;;;;;;4990727;28;20042;-63
2022/12/04 00:44:43;;;;;;;26.77;15.75;;;;;;;;;;4992061;28;20050;-63
2022/12/04 00:47:09;;;;;;;25.98;15.05;;;;;;;;;;4991541;28;20045;-64
2022/12/04 00:49:36;;;;;;;25.45;15.68;;;;;;;;;;4991907;28;20486;-64
2022/12/04 00:52:02;;;;;;;25.42;15.13;;;;;;;;;;4974785;28;20113;-64
2022/12/04 00:54:29;;;;;;;26.65;16.95;;;;;;;;;;4990629;28;20054;-64
2022/12/04 00:56:56;;;;;;;27.10;16.05;;;;;;;;;;4990818;28;20035;-64
2022/12/04 00:59:22;;;;;;;24.70;15.70;;;;;;;;;;4992267;28;20042;-63
2022/12/04 01:01:49;;;;;;;26.13;15.95;;;;;;;;;;4992804;28;20073;-64
2022/12/04 01:04:15;;;;;;;26.50;15.43;;;;;;;;;;4992618;28;20108;-64
2022/12/04 01:06:41;;;;;;;28.05;16.95;;;;;;;;;;4991426;28;20100;-64
2022/12/04 01:09:08;;;;;;;28.27;16.80;;;;;;;;;;4974730;28;20054;-64
2022/12/04 01:11:35;;;;;;;25.00;15.70;;;;;;;;;;4991765;28;20047;-64
2022/12/04 01:14:01;;;;;;;25.80;15.85;;;;;;;;;;4991947;28;20112;-63
2022/12/04 01:16:29;;;;;;;24.40;15.90;;;;;;;;;;4991239;28;20042;-64
2022/12/04 01:18:56;;;;;;;25.88;15.63;;;;;;;;;;4974319;28;20457;-64
2022/12/04 01:21:22;;;;;;;26.10;16.85;;;;;;;;;;4974797;28;20046;-64
2022/12/04 01:23:48;;;;;;;27.15;17.17;;;;;;;;;;4992007;28;20042;-63
2022/12/04 01:26:15;;;;;;;25.92;16.80;;;;;;;;;;4973646;28;20050;-63
2022/12/04 01:28:43;;;;;;;28.48;17.65;;;;;;;;;;4991551;28;20043;-65
2022/12/04 01:31:12;;;;;;;27.30;17.27;;;;;;;;;;4974145;28;20045;-64
2022/12/04 01:33:38;;;;;;;27.98;17.27;;;;;;;;;;4974556;28;20121;-64
2022/12/04 01:36:06;;;;;;;29.05;16.95;;;;;;;;;;4973792;28;20752;-64
2022/12/04 01:38:34;;;;;;;26.27;16.98;;;;;;;;;;4974440;28;20050;-64
2022/12/04 01:41:00;;;;;;;27.45;17.35;;;;;;;;;;4991423;28;20498;-64
2022/12/04 01:43:28;;;;;;;27.90;17.70;;;;;;;;;;4991515;28;20047;-64
2022/12/04 01:45:55;;;;;;;25.50;16.63;;;;;;;;;;4990904;28;20054;-64
2022/12/04 01:48:30;;;;;;;26.02;16.40;;;;;;;;;;4973992;28;20141;-64
2022/12/04 01:50:59;;;;;;;26.08;16.95;;;;;;;;;;4991726;28;20034;-64
2022/12/04 01:53:25;;;;;;;27.55;17.05;;;;;;;;;;4991618;28;20046;-64
2022/12/04 01:55:52;;;;;;;24.88;16.67;;;;;;;;;;4991224;28;20039;-65
2022/12/04 01:58:22;;;;;;;26.65;15.95;;;;;;;;;;4992323;28;20495;-64
2022/12/04 02:00:49;;;;;;;23.00;15.98;;;;;;;;;;4974893;28;20039;-65
2022/12/04 02:03:17;;;;;;;23.60;15.00;;;;;;;;;;4991827;28;20035;-63
2022/12/04 02:05:44;;;;;;;23.90;15.60;;;;;;;;;;4991120;28;20049;-64
2022/12/04 02:08:10;;;;;;;25.25;16.08;;;;;;;;;;4989993;28;20460;-65
2022/12/04 02:10:55;;;;;;;24.02;16.02;;;;;;;;;;4994163;28;20054;-64
2022/12/04 02:13:29;;;;;;;24.38;15.48;;;;;;;;;;4995143;28;20053;-64
2022/12/04 02:15:55;;;;;;;25.45;17.00;;;;;;;;;;4994212;28;20042;-64
2022/12/04 02:18:33;;;;;;;26.58;17.05;;;;;;;;;;4994596;28;20086;-64
2022/12/04 02:21:05;;;;;;;27.35;16.80;;;;;;;;;;4994533;28;20454;-64
2022/12/04 02:23:57;;;;;;;27.85;17.48;;;;;;;;;;4995469;28;20426;-63
2022/12/04 02:26:26;;;;;;;25.27;16.63;;;;;;;;;;4963724;28;20081;-64
2022/12/04 02:28:56;;;;;;;26.70;16.58;;;;;;;;;;4994378;28;20085;-63
2022/12/04 02:31:29;;;;;;;27.40;17.48;;;;;;;;;;4976930;28;20516;-64
2022/12/04 02:33:59;;;;;;;24.80;17.07;;;;;;;;;;4994287;28;20038;-64
2022/12/04 02:36:31;;;;;;;27.05;16.58;;;;;;;;;;4993684;28;20053;-64
2022/12/04 02:39:00;;;;;;;28.25;18.25;;;;;;;;;;4960948;28;20058;-64
2022/12/04 02:41:38;;;;;;;28.33;18.45;;;;;;;;;;4976819;28;20054;-64
2022/12/04 02:44:18;;;;;;;28.08;18.25;;;;;;;;;;4992981;28;20054;-65
2022/12/04 02:46:47;;;;;;;29.30;18.80;;;;;;;;;;4993722;28;20053;-64
2022/12/04 02:49:16;;;;;;;27.42;18.40;;;;;;;;;;4992910;28;20042;-64
2022/12/04 02:51:44;;;;;;;27.27;17.83;;;;;;;;;;4994111;28;20038;-64
2022/12/04 02:54:18;;;;;;;25.17;16.83;;;;;;;;;;4978371;28;20054;-64
2022/12/04 02:56:44;;;;;;;;;;;;;;;;;;4977995;28;20070;-64
2022/12/04 02:59:13;;;;;;;26.33;16.38;;;;;;;;;;4993214;28;20325;-64
2022/12/04 03:01:42;;;;;;;25.25;17.08;;;;;;;;;;4993795;28;20076;-64
2022/12/04 03:04:22;;;;;;;28.52;17.67;;;;;;;;;;4994088;28;20057;-64
2022/12/04 03:07:09;;;;;;;28.70;17.98;;;;;;;;;;4993252;28;20042;-64
2022/12/04 03:09:37;;;;;;;27.45;17.77;;;;;;;;;;4993659;28;20046;-64
2022/12/04 03:12:17;;;;;;;31.40;18.25;;;;;;;;;;4975949;28;20042;-64
2022/12/04 03:14:47;;;;;;;27.83;18.13;;;;;;;;;;4993768;28;20058;-64
2022/12/04 03:17:17;;;;;;;26.90;17.38;;;;;;;;;;4975663;28;20042;-64
2022/12/04 03:19:51;;;;;;;27.70;17.60;;;;;;;;;;4959626;28;20046;-64
2022/12/04 03:22:20;;;;;;;30.05;18.80;;;;;;;;;;4993555;28;20050;-64
2022/12/04 03:24:50;;;;;;;29.20;18.20;;;;;;;;;;4993207;28;20046;-64
2022/12/04 03:27:23;;;;;;;28.92;18.63;;;;;;;;;;4993055;28;20114;-64
2022/12/04 03:29:55;;;;;;;28.40;18.57;;;;;;;;;;4993160;28;20042;-64
2022/12/04 03:32:32;;;;;;;29.25;18.92;;;;;;;;;;4960230;28;20042;-64
2022/12/04 03:35:06;;;;;;;30.35;19.10;;;;;;;;;;4975534;28;20129;-64
2022/12/04 03:37:33;;;;;;;;;;;;;;;;;;4993748;28;20101;-64
2022/12/04 03:40:05;;;;;;;28.58;17.92;;;;;;;;;;4993260;28;19932;-64
2022/12/04 03:42:38;;;;;;;26.90;17.50;;;;;;;;;;4993305;28;20446;-65
2022/12/04 03:45:05;;;;;;;31.27;20.00;;;;;;;;;;4994270;28;20117;-64
2022/12/04 03:47:35;;;;;;;29.83;18.60;;;;;;;;;;4995852;28;20047;-64
2022/12/04 03:50:06;;;;;;;31.45;19.65;;;;;;;;;;4994825;28;20042;-64
2022/12/04 03:52:44;;;;;;;29.25;19.33;;;;;;;;;;4994283;28;20468;-64
2022/12/04 03:55:25;;;;;;;28.02;17.70;;;;;;;;;;4993481;28;20034;-64
2022/12/04 03:57:55;;;;;;;29.70;18.33;;;;;;;;;;4995452;28;20054;-64
2022/12/04 04:00:22;;;;;;;30.25;18.88;;;;;;;;;;4977072;28;20038;-65
2022/12/04 04:03:00;;;;;;;30.73;18.90;;;;;;;;;;4995765;28;20054;-64
2022/12/04 04:05:27;;;;;;;30.48;19.02;;;;;;;;;;4995441;28;20057;-64
2022/12/04 04:08:24;;;;;;;31.73;19.50;;;;;;;;;;4994213;28;20061;-65
2022/12/04 04:10:46;;;;;;;28.48;17.65;;;;;;;;;;4976810;28;20056;-64
2022/12/04 04:24:36;;;;;;;26.40;16.70;;;;;;;;;;4993595;28;20046;-64
2022/12/04 04:27:03;;;;;;;25.13;16.38;;;;;;;;;;4993055;28;20042;-66
2022/12/04 04:29:29;;;;;;;27.42;17.23;;;;;;;;;;4976486;28;20042;-64
2022/12/04 04:32:12;;;;;;;28.65;17.50;;;;;;;;;;4993083;28;20035;-64
2022/12/04 04:34:38;;;;;;;25.33;17.08;;;;;;;;;;4993957;28;20054;-66
2022/12/04 04:37:26;;;;;;;28.55;17.45;;;;;;;;;;4960172;28;20074;-66
2022/12/04 04:40:05;;;;;;;27.58;17.02;;;;;;;;;;4993563;28;20502;-65
2022/12/04 04:42:37;;;;;;;28.08;17.85;;;;;;;;;;4975573;28;20042;-65
2022/12/04 04:45:05;;;;;;;29.38;17.40;;;;;;;;;;4992320;28;20104;-65
2022/12/04 04:47:35;;;;;;;28.35;17.95;;;;;;;;;;4993077;28;20081;-65
2022/12/04 04:50:04;;;;;;;25.95;16.73;;;;;;;;;;4975951;28;20097;-65
2022/12/04 04:52:31;;;;;;;29.70;17.85;;;;;;;;;;4976164;28;20043;-64
2022/12/04 04:54:59;;;;;;;28.90;18.58;;;;;;;;;;4993746;28;20047;-66
2022/12/04 04:57:29;;;;;;;30.98;19.33;;;;;;;;;;4993361;28;20050;-65
2022/12/04 04:59:56;;;;;;;29.85;18.38;;;;;;;;;;4975707;28;20446;-65
2022/12/04 05:02:26;;;;;;;32.08;19.63;;;;;;;;;;5389245;23;20046;-62
2022/12/04 05:04:54;;;;;;;32.03;18.83;;;;;;;;;;4995137;28;20038;-63
2022/12/04 05:07:20;;;;;;;30.88;18.15;;;;;;;;;;5012447;28;20529;-63
2022/12/04 05:09:47;;;;;;;25.58;17.02;;;;;;;;;;5012468;28;20080;-63
2022/12/04 05:12:13;;;;;;;27.60;16.95;;;;;;;;;;5012432;28;20034;-63
2022/12/04 05:14:39;;;;;;;27.13;17.52;;;;;;;;;;5013155;28;20873;-64
2022/12/04 05:17:06;;;;;;;24.77;15.63;;;;;;;;;;5011565;28;20046;-63
2022/12/04 05:19:53;;;;;;;25.38;16.08;;;;;;;;;;4995938;28;20097;-61
2022/12/04 05:22:31;;;;;;;23.70;14.50;;;;;;;;;;4995208;28;20100;-62
2022/12/04 05:24:58;;;;;;;25.98;16.10;;;;;;;;;;5011957;28;20069;-62
2022/12/04 05:27:25;;;;;;;23.27;15.68;;;;;;;;;;5011946;28;20046;-62
2022/12/04 05:29:52;;;;;;;22.50;15.63;;;;;;;;;;5012116;28;20049;-63
2022/12/04 05:32:20;;;;;;;23.40;15.43;;;;;;;;;;4995024;28;20117;-64
2022/12/04 05:34:48;;;;;;;22.02;14.57;;;;;;;;;;4994527;28;20046;-62
2022/12/04 05:37:14;;;;;;;21.73;13.98;;;;;;;;;;5011526;28;20490;-63
2022/12/04 05:39:41;;;;;;;21.42;14.48;;;;;;;;;;5012107;28;20038;-62
2022/12/04 05:42:07;;;;;;;23.88;14.43;;;;;;;;;;5012049;28;20096;-63
2022/12/04 05:44:34;;;;;;;22.33;14.52;;;;;;;;;;4997609;28;20050;-63
2022/12/04 05:47:00;;;;;;;20.88;14.20;;;;;;;;;;5015176;28;20490;-64
2022/12/04 05:49:28;;;;;;;22.85;14.52;;;;;;;;;;5015694;28;20100;-64
2022/12/04 05:51:54;;;;;;;22.65;14.60;;;;;;;;;;5015708;28;20490;-65
2022/12/04 05:54:21;;;;;;;23.98;14.98;;;;;;;;;;4998303;28;20061;-62
2022/12/04 05:56:47;;;;;;;20.33;14.10;;;;;;;;;;5015177;28;20038;-62
2022/12/04 05:59:14;;;;;;;21.73;14.70;;;;;;;;;;5015501;28;20049;-63
2022/12/04 06:01:41;;;;;;;21.90;14.80;;;;;;;;;;5015367;28;20038;-64
2022/12/04 06:04:07;;;;;;;23.85;15.18;;;;;;;;;;5015517;28;20040;-62
2022/12/04 06:06:34;;;;;;;23.30;15.10;;;;;;;;;;5014607;28;20044;-63
2022/12/04 06:09:01;;;;;;;22.67;14.93;;;;;;;;;;4997659;28;20042;-63
2022/12/04 06:11:31;;;;;;;21.83;14.48;;;;;;;;;;5015318;28;20060;-63
2022/12/04 06:13:58;;;;;;;22.23;14.32;;;;;;;;;;5015210;28;20049;-63
2022/12/04 06:16:27;;;;;;;23.75;14.48;;;;;;;;;;5014744;28;20034;-63
2022/12/04 06:18:54;;;;;;;23.45;14.40;;;;;;;;;;5015582;28;20041;-63
2022/12/04 06:21:22;;;;;;;21.88;14.20;;;;;;;;;;5015753;28;20049;-64
2022/12/04 06:23:49;;;;;;;21.92;13.77;;;;;;;;;;5016214;28;20053;-63
2022/12/04 06:26:16;;;;;;;21.80;14.43;;;;;;;;;;4997305;28;20053;-63
2022/12/04 06:28:42;;;;;;;24.45;14.52;;;;;;;;;;4997839;28;20042;-63
2022/12/04 06:31:10;;;;;;;23.02;14.45;;;;;;;;;;4997710;28;20045;-62
2022/12/04 06:33:37;;;;;;;20.40;14.00;;;;;;;;;;5015092;28;20041;-64
2022/12/04 06:36:05;;;;;;;20.15;12.75;;;;;;;;;;5014497;28;20038;-64
2022/12/04 06:38:32;;;;;;;21.08;13.30;;;;;;;;;;4997771;28;20432;-62
2022/12/04 06:40:58;;;;;;;22.85;14.68;;;;;;;;;;5014978;28;20050;-63
2022/12/04 06:43:25;;;;;;;22.48;14.63;;;;;;;;;;5015125;28;20052;-62
2022/12/04 06:45:59;;;;;;;20.90;13.43;;;;;;;;;;5014286;28;20112;-65
2022/12/04 06:48:27;;;;;;;20.05;13.50;;;;;;;;;;5015410;28;20049;-61
2022/12/04 06:51:00;;;;;;;20.88;13.52;;;;;;;;;;4997368;28;20046;-62
2022/12/04 06:53:29;;;;;;;22.38;14.70;;;;;;;;;;5014537;28;20046;-63
2022/12/04 06:55:56;;;;;;;24.42;14.45;;;;;;;;;;4996050;28;20068;-63
2022/12/04 06:58:23;;;;;;;23.60;14.45;;;;;;;;;;5014271;28;20514;-62
2022/12/04 07:00:50;;;;;;;21.27;13.93;;;;;;;;;;5014445;28;20413;-62
2022/12/04 07:03:16;;;;;;;23.13;15.02;;;;;;;;;;5014136;28;20080;-63
2022/12/04 07:05:43;;;;;;;22.90;14.43;;;;;;;;;;5013496;28;20052;-62
2022/12/04 07:08:09;;;;;;;32.97;18.55;;;;;;;;;;5014268;28;20069;-62
2022/12/04 07:10:36;;;;;;;24.92;16.05;;;;;;;;;;5013817;28;20475;-62
2022/12/04 07:13:03;;;;;;;25.90;15.15;;;;;;;;;;4996529;28;20057;-61
2022/12/04 07:15:31;;;;;;;25.35;15.25;;;;;;;;;;4995871;28;20045;-62
2022/12/04 07:17:58;;;;;;;26.02;16.65;;;;;;;;;;5013730;28;20038;-63
2022/12/04 07:20:25;;;;;;;26.42;15.48;;;;;;;;;;5014254;28;20041;-61
2022/12/04 07:22:51;;;;;;;28.25;16.23;;;;;;;;;;5013710;28;20053;-61
2022/12/04 07:25:18;;;;;;;24.67;15.32;;;;;;;;;;5014636;28;20054;-62
2022/12/04 07:27:44;;;;;;;22.60;14.93;;;;;;;;;;5014061;28;20490;-62
2022/12/04 07:30:11;;;;;;;27.23;15.88;;;;;;;;;;5015642;28;20509;-63
2022/12/04 07:32:41;;;;;;;27.33;15.98;;;;;;;;;;5013965;28;20488;-62
2022/12/04 07:35:07;;;;;;;23.80;14.98;;;;;;;;;;4996832;28;20410;-62
2022/12/04 07:37:34;;;;;;;25.17;15.13;;;;;;;;;;4998419;28;20052;-63
2022/12/04 07:40:01;;;;;;;24.85;14.60;;;;;;;;;;5013491;28;20383;-62
2022/12/04 07:42:27;;;;;;;20.85;13.60;;;;;;;;;;5016204;28;20038;-62
2022/12/04 07:44:54;;;;;;;21.27;13.68;;;;;;;;;;5016203;28;20049;-62
2022/12/04 07:47:22;;;;;;;22.73;13.93;;;;;;;;;;4996738;28;20096;-64
2022/12/04 07:49:48;;;;;;;18.58;12.05;;;;;;;;;;5016341;28;20046;-63
2022/12/04 07:52:21;;;;;;;21.70;12.98;;;;;;;;;;5013536;28;20050;-63
2022/12/04 07:54:47;;;;;;;20.67;13.68;;;;;;;;;;4997685;28;20052;-63
2022/12/04 07:57:14;;;;;;;21.27;13.73;;;;;;;;;;5013706;28;20044;-64
2022/12/04 07:59:40;;;;;;;20.88;13.00;;;;;;;;;;5013523;28;20050;-63
2022/12/04 08:02:07;;;;;;;20.65;13.50;;;;;;;;;;4980957;28;20100;-63
2022/12/04 08:04:37;;;;;;;21.58;12.77;;;;;;;;;;5013741;28;20037;-65
2022/12/04 08:07:04;;;;;;;20.13;12.75;;;;;;;;;;5014247;28;20088;-62
2022/12/04 08:09:31;;;;;;;19.73;12.57;;;;;;;;;;5014040;28;20494;-65
2022/12/04 08:11:57;;;;;;;25.05;16.65;;;;;;;;;;4995535;28;20038;-63
2022/12/04 08:14:24;;;;;;;24.00;14.10;;;;;;;;;;5012849;28;20038;-64
2022/12/04 08:16:54;;;;;;;21.83;13.52;;;;;;;;;;5012535;28;20046;-63
2022/12/04 08:19:24;;;;;;;22.02;13.45;;;;;;;;;;5013010;28;20050;-63
2022/12/04 08:21:52;;;;;;;20.98;13.88;;;;;;;;;;4995436;28;20045;-64
2022/12/04 08:24:18;;;;;;;20.25;12.55;;;;;;;;;;5013224;28;20053;-63
2022/12/04 08:26:45;;;;;;;20.92;12.70;;;;;;;;;;4994921;28;20053;-63
2022/12/04 08:29:12;;;;;;;20.60;13.13;;;;;;;;;;5012834;28;20490;-63
2022/12/04 08:31:39;;;;;;;20.90;13.45;;;;;;;;;;5012560;28;20044;-64
2022/12/04 08:34:07;;;;;;;20.88;13.35;;;;;;;;;;4996350;28;20046;-63
2022/12/04 08:36:35;;;;;;;20.85;12.75;;;;;;;;;;5025563;28;20049;-64
2022/12/04 08:39:01;;;;;;;27.20;16.00;;;;;;;;;;5026975;28;20042;-63
2022/12/04 08:41:28;;;;;;;25.55;15.07;;;;;;;;;;5013463;28;20045;-63
2022/12/04 08:43:55;;;;;;;22.90;13.13;;;;;;;;;;5012696;28;20443;-63
2022/12/04 08:46:22;;;;;;;19.40;12.93;;;;;;;;;;4994951;28;20053;-63
2022/12/04 08:48:48;;;;;;;20.33;12.85;;;;;;;;;;5012840;28;20539;-63
2022/12/04 08:51:23;;;;;;;22.85;13.43;;;;;;;;;;5012920;28;20038;-64
2022/12/04 08:53:56;;;;;;;22.85;13.73;;;;;;;;;;5012864;28;20053;-65
2022/12/04 08:56:23;;;;;;;22.87;13.10;;;;;;;;;;5011922;28;20053;-63
2022/12/04 08:58:49;;;;;;;18.98;12.27;;;;;;;;;;5012616;28;20038;-65
2022/12/04 09:01:16;;;;;;;16.55;11.85;;;;;;;;;;5012588;28;20053;-66
2022/12/04 09:03:43;;;;;;;17.15;11.75;;;;;;;;;;4995365;28;20033;-66
2022/12/04 09:06:11;;;;;;;19.92;11.93;;;;;;;;;;5012527;28;20052;-67
2022/12/04 09:08:37;;;;;;;25.35;14.95;;;;;;;;;;5013025;28;20461;-68
2022/12/04 09:11:08;;;;;;;16.92;12.00;;;;;;;;;;5013248;28;20042;-68
2022/12/04 09:13:35;;;;;;;19.23;12.13;;;;;;;;;;4996874;28;20048;-67
2022/12/04 09:16:03;;;;;;;21.25;12.00;;;;;;;;;;4995899;28;20042;-66
2022/12/04 09:18:30;;;;;;;37.33;21.17;;;;;;;;;;4998662;28;20504;-67
2022/12/04 09:20:58;;;;;;;62.83;28.88;;;;;;;;;;5018625;28;20042;-68
2022/12/04 09:23:25;;;;;;;34.72;18.88;;;;;;;;;;5000903;28;20038;-65
2022/12/04 09:25:52;;;;;;;20.48;12.88;;;;;;;;;;5017767;28;20042;-67
2022/12/04 09:28:19;;;;;;;15.95;10.88;;;;;;;;;;5000156;28;20057;-67
2022/12/04 09:30:54;;;;;;;17.58;10.98;;;;;;;;;;4998730;28;20056;-66
2022/12/04 09:33:20;;;;;;;18.15;11.50;;;;;;;;;;5018706;28;20106;-68
2022/12/04 09:35:47;;;;;;;18.75;11.45;;;;;;;;;;5018351;28;20038;-67
2022/12/04 09:38:14;;;;;;;17.63;11.73;;;;;;;;;;5016278;28;20053;-68
2022/12/04 09:40:47;;;;;;;19.83;12.90;;;;;;;;;;5017579;28;20104;-66
2022/12/04 09:43:46;;;;;;;18.75;12.45;;;;;;;;;;4999761;28;20486;-66
2022/12/04 09:46:18;;;;;;;22.75;14.73;;;;;;;;;;4946139;28;20053;-66
2022/12/04 09:48:47;;;;;;;27.48;15.25;;;;;;;;;;4983404;28;20050;-68
2022/12/04 09:51:17;;;;;;;24.55;14.75;;;;;;;;;;5017221;28;20482;-67
2022/12/04 09:53:46;;;;;;;26.67;16.02;;;;;;;;;;5016768;28;20041;-68
2022/12/04 09:56:16;;;;;;;26.85;14.90;;;;;;;;;;5015897;28;20498;-66
2022/12/04 09:58:51;;;;;;;23.65;14.20;;;;;;;;;;5002441;28;20057;-66
2022/12/04 10:01:22;;;;;;;25.20;15.45;;;;;;;;;;5001191;28;20414;-67
2022/12/04 10:03:49;;;;;;;23.88;14.20;;;;;;;;;;5002086;28;20053;-68
2022/12/04 10:06:22;;;;;;;27.95;15.48;;;;;;;;;;4988065;28;20046;-65
2022/12/04 10:09:00;;;;;;;25.75;15.00;;;;;;;;;;5020348;28;20049;-68
2022/12/04 10:11:45;;;;;;;27.52;16.77;;;;;;;;;;5020173;28;20041;-68
2022/12/04 10:14:11;;;;;;;;;;;;;;;;;;5002012;28;20050;-67
2022/12/04 10:16:38;;;;;;;31.83;17.27;;;;;;;;;;5018756;28;19928;-67
2022/12/04 10:19:07;;;;;;;29.17;16.60;;;;;;;;;;5000467;28;20045;-66
2022/12/04 10:21:39;;;;;;;29.33;17.15;;;;;;;;;;5019572;28;20437;-68
2022/12/04 10:24:19;;;;;;;29.70;15.95;;;;;;;;;;5021068;28;20427;-67
2022/12/04 10:26:46;;;;;;;29.65;16.00;;;;;;;;;;5001868;28;20054;-67
2022/12/04 10:29:21;;;;;;;27.70;15.65;;;;;;;;;;5016560;28;20046;-66
2022/12/04 10:31:49;;;;;;;30.88;17.13;;;;;;;;;;4998305;28;20413;-66
2022/12/04 10:34:35;;;;;;;26.88;15.38;;;;;;;;;;4983013;28;20050;-68
2022/12/04 10:37:11;;;;;;;27.52;15.75;;;;;;;;;;4997343;28;20080;-66
2022/12/04 10:39:40;;;;;;;27.63;15.45;;;;;;;;;;4999191;28;20105;-67
2022/12/04 10:42:25;;;;;;;30.58;17.05;;;;;;;;;;5017704;28;20124;-67
2022/12/04 10:44:52;;;;;;;28.85;15.75;;;;;;;;;;5016117;28;20065;-69
2022/12/04 10:47:21;;;;;;;30.73;17.70;;;;;;;;;;4997462;28;20064;-67
2022/12/04 10:49:47;;;;;;;29.70;17.55;;;;;;;;;;4997349;28;20119;-67
2022/12/04 10:52:14;;;;;;;33.13;16.90;;;;;;;;;;4997724;28;20486;-67
2022/12/04 10:54:52;;;;;;;27.52;15.55;;;;;;;;;;5014645;28;20046;-68
2022/12/04 10:57:19;;;;;;;26.67;15.63;;;;;;;;;;5014622;28;20073;-67
2022/12/04 10:59:55;;;;;;;29.30;16.02;;;;;;;;;;5015039;28;20073;-67
2022/12/04 11:02:30;;;;;;;27.65;14.70;;;;;;;;;;5014939;28;20042;-66
2022/12/04 11:04:59;;;;;;;31.77;16.95;;;;;;;;;;4997347;28;20462;-68
2022/12/04 11:07:27;;;;;;;29.27;16.00;;;;;;;;;;4997111;28;20395;-67
2022/12/04 11:09:58;;;;;;;28.45;15.10;;;;;;;;;;5014699;28;20041;-68
2022/12/04 11:12:24;;;;;;;29.65;15.80;;;;;;;;;;4996366;28;20646;-67
2022/12/04 11:15:06;;;;;;;27.52;15.85;;;;;;;;;;5032377;22;20037;-66
2022/12/04 11:17:33;;;;;;;29.08;14.85;;;;;;;;;;5014066;28;20425;-67
2022/12/04 11:20:01;;;;;;;32.35;15.32;;;;;;;;;;4996748;28;20406;-66
2022/12/04 11:22:27;;;;;;;32.30;16.00;;;;;;;;;;4980244;28;20050;-67
2022/12/04 11:24:55;;;;;;;29.30;15.93;;;;;;;;;;4993931;28;20049;-67
2022/12/04 11:27:24;;;;;;;28.02;15.25;;;;;;;;;;4976777;28;20054;-67
2022/12/04 11:29:50;;;;;;;26.95;15.48;;;;;;;;;;4977902;28;20047;-66
2022/12/04 11:32:22;;;;;;;29.75;16.25;;;;;;;;;;4977330;28;20093;-66
2022/12/04 11:34:51;;;;;;;31.77;16.70;;;;;;;;;;4994221;28;20038;-67
2022/12/04 11:37:20;;;;;;;32.83;16.33;;;;;;;;;;4993708;28;20042;-66
2022/12/04 11:39:47;;;;;;;39.72;19.20;;;;;;;;;;4977035;28;20039;-66
2022/12/04 11:42:18;;;;;;;29.60;16.27;;;;;;;;;;4976216;28;20050;-66
2022/12/04 11:45:08;;;;;;;27.35;15.85;;;;;;;;;;4976438;28;20502;-66
2022/12/04 11:47:34;;;;;;;28.85;15.43;;;;;;;;;;4992384;28;20450;-67
2022/12/04 11:50:19;;;;;;;23.83;14.40;;;;;;;;;;4993640;28;20042;-68
2022/12/04 11:53:06;;;;;;;30.00;15.75;;;;;;;;;;4976602;28;20391;-66
2022/12/04 11:55:41;;;;;;;28.45;15.25;;;;;;;;;;4993206;28;20043;-66
2022/12/04 11:58:19;;;;;;;33.67;17.63;;;;;;;;;;4976261;28;20046;-66
2022/12/04 12:01:04;;;;;;;30.02;16.20;;;;;;;;;;4975975;28;20049;-67
2022/12/04 12:03:39;;;;;;;27.17;14.90;;;;;;;;;;4976727;28;20394;-66
2022/12/04 12:06:06;;;;;;;28.45;15.43;;;;;;;;;;4975647;28;20046;-66
2022/12/04 12:08:42;;;;;;;27.08;16.30;;;;;;;;;;4993404;28;20038;-66
2022/12/04 12:11:37;;;;;;;25.25;14.75;;;;;;;;;;4975819;28;20046;-67
2022/12/04 12:14:13;;;;;;;30.17;16.23;;;;;;;;;;4960037;28;20076;-66
2022/12/04 12:17:05;;;;;;;28.88;15.30;;;;;;;;;;4975316;28;20054;-66
2022/12/04 12:19:50;;;;;;;27.02;14.68;;;;;;;;;;4993995;28;20103;-67
2022/12/04 12:22:36;;;;;;;27.08;15.00;;;;;;;;;;4994440;28;20064;-67
2022/12/04 12:25:12;;;;;;;29.88;15.30;;;;;;;;;;4992784;28;20050;-66
2022/12/04 12:27:53;;;;;;;31.15;15.85;;;;;;;;;;4975816;28;20054;-67
2022/12/04 12:30:21;;;;;;;26.15;14.60;;;;;;;;;;4975811;28;20503;-65
2022/12/04 12:32:59;;;;;;;26.15;14.63;;;;;;;;;;4992909;28;20046;-66
2022/12/04 12:35:34;;;;;;;31.50;15.32;;;;;;;;;;4974958;28;20101;-66
2022/12/04 12:38:18;;;;;;;26.75;15.45;;;;;;;;;;4993211;28;20042;-67
2022/12/04 12:40:50;;;;;;;31.67;17.15;;;;;;;;;;4975430;28;20101;-65
2022/12/04 12:43:21;;;;;;;28.25;15.63;;;;;;;;;;4975413;28;20085;-66
2022/12/04 12:45:55;;;;;;;25.70;15.35;;;;;;;;;;4992293;28;20050;-66
2022/12/04 12:48:22;;;;;;;;;;;;;;;;;;4993214;28;20038;-65
2022/12/04 12:51:14;;;;;;;24.23;13.25;;;;;;;;;;4992840;28;20047;-65
2022/12/04 12:53:57;;;;;;;30.23;16.00;;;;;;;;;;4992231;28;20050;-65
2022/12/04 12:56:37;;;;;;;29.05;15.43;;;;;;;;;;4992088;28;20449;-65
2022/12/04 12:59:06;;;;;;;28.00;16.63;;;;;;;;;;4975316;28;20042;-65
2022/12/04 13:01:45;;;;;;;27.02;15.50;;;;;;;;;;4959953;28;20042;-64
2022/12/04 13:04:15;;;;;;;27.38;14.98;;;;;;;;;;4975747;28;20062;-65
2022/12/04 13:06:43;;;;;;;27.10;15.65;;;;;;;;;;4992439;28;20446;-67
2022/12/04 13:09:16;;;;;;;27.48;15.68;;;;;;;;;;4975977;28;20148;-66
2022/12/04 13:11:45;;;;;;;28.50;16.40;;;;;;;;;;4975397;28;20506;-68
2022/12/04 13:14:12;;;;;;;28.92;16.27;;;;;;;;;;4994291;28;20035;-67
2022/12/04 13:16:44;;;;;;;28.27;15.82;;;;;;;;;;4978076;28;20053;-66
2022/12/04 13:19:14;;;;;;;25.63;15.25;;;;;;;;;;4994094;28;20062;-65
2022/12/04 13:21:43;;;;;;;26.75;15.32;;;;;;;;;;4975328;28;20429;-65
2022/12/04 13:24:28;;;;;;;29.50;16.67;;;;;;;;;;4975130;28;20418;-66
2022/12/04 13:26:55;;;;;;;30.13;15.43;;;;;;;;;;4973640;28;20054;-66
2022/12/04 13:29:48;;;;;;;26.67;14.85;;;;;;;;;;4974540;28;20053;-66
2022/12/04 13:32:38;;;;;;;23.45;14.20;;;;;;;;;;4992140;28;20061;-66
2022/12/04 13:35:10;;;;;;;26.90;13.32;;;;;;;;;;4975124;28;20034;-66
2022/12/04 13:37:57;;;;;;;25.48;15.27;;;;;;;;;;4975459;28;20486;-66
2022/12/04 13:40:41;;;;;;;23.60;12.68;;;;;;;;;;4975046;28;20042;-66
2022/12/04 13:43:25;;;;;;;23.90;12.98;;;;;;;;;;4992177;28;20038;-65
2022/12/04 13:45:53;;;;;;;23.00;13.45;;;;;;;;;;4974488;28;20054;-66
2022/12/04 13:48:28;;;;;;;22.50;12.75;;;;;;;;;;4992170;28;20046;-66
2022/12/04 13:50:54;;;;;;;;;;;;;;;;;;4959366;28;20058;-66
2022/12/04 13:53:36;;;;;;;23.40;12.65;;;;;;;;;;4992322;28;20035;-66
2022/12/04 13:56:03;;;;;;;24.98;13.43;;;;;;;;;;4974221;28;20047;-67
2022/12/04 13:58:36;;;;;;;24.45;13.23;;;;;;;;;;4992268;28;20418;-66
2022/12/04 14:01:05;;;;;;;26.83;13.88;;;;;;;;;;4992072;28;20042;-67
2022/12/04 14:03:43;;;;;;;29.98;16.75;;;;;;;;;;4958334;28;20050;-66
2022/12/04 14:06:22;;;;;;;25.10;13.70;;;;;;;;;;4996280;28;20062;-66
2022/12/04 14:08:53;;;;;;;25.20;14.90;;;;;;;;;;4978540;28;20053;-66
2022/12/04 14:11:19;;;;;;;24.73;14.18;;;;;;;;;;4998322;28;20129;-67
2022/12/04 14:13:48;;;;;;;22.77;13.23;;;;;;;;;;4996849;28;20465;-67
2022/12/04 14:16:44;;;;;;;27.38;14.20;;;;;;;;;;4977515;28;20101;-67
2022/12/04 14:19:23;;;;;;;25.65;13.52;;;;;;;;;;4979362;28;20047;-68
2022/12/04 14:21:49;;;;;;;28.48;14.20;;;;;;;;;;4977918;28;20058;-67
2022/12/04 14:24:36;;;;;;;23.42;13.18;;;;;;;;;;4994980;28;20038;-68
2022/12/04 14:27:22;;;;;;;26.95;14.40;;;;;;;;;;4977163;28;20050;-67
2022/12/04 14:29:51;;;;;;;25.15;13.93;;;;;;;;;;4977796;28;20042;-67
2022/12/04 14:32:22;;;;;;;23.88;13.50;;;;;;;;;;4995471;28;20042;-67
2022/12/04 14:34:49;;;;;;;26.15;14.30;;;;;;;;;;4995019;28;20517;-66
2022/12/04 14:37:27;;;;;;;25.48;13.55;;;;;;;;;;4977317;28;20046;-65
2022/12/04 14:39:54;;;;;;;24.00;12.65;;;;;;;;;;4977563;28;20050;-66
2022/12/04 14:42:32;;;;;;;27.17;14.23;;;;;;;;;;4977548;28;20057;-66
2022/12/04 14:44:59;;;;;;;40.17;22.38;;;;;;;;;;4994575;28;20050;-66
2022/12/04 14:47:26;;;;;;;29.88;16.20;;;;;;;;;;4977382;28;20046;-65
2022/12/04 14:50:07;;;;;;;28.58;14.85;;;;;;;;;;4977565;28;20050;-65